createdAt,value
2018-04-24T06:37:34.454Z,85
2018-04-24T06:38:24.468Z,58.1
2018-04-24T06:39:14.527Z,55.3
2018-04-24T06:40:04.039Z,53.1
2018-04-24T06:40:54.376Z,50.9
2018-04-24T06:41:44.736Z,49.4
2018-04-24T06:42:34.531Z,48.6
2018-04-24T06:43:24.853Z,48.1
2018-04-24T06:44:14.926Z,47.7
2018-04-24T06:45:04.727Z,47.6
2018-04-24T06:45:54.760Z,47.8
2018-04-24T06:46:44.848Z,48.2
2018-04-24T06:47:35.192Z,48.8
2018-04-24T06:48:25.061Z,49.4
2018-04-24T06:49:15.298Z,50.1
2018-04-24T06:50:05.105Z,50.8
2018-04-24T06:50:55.424Z,51.5
2018-04-24T06:51:45.230Z,52.2
2018-04-24T06:52:35.629Z,52.9
2018-04-24T06:53:25.690Z,53.7
2018-04-24T06:54:15.681Z,54.4
2018-04-24T06:55:05.789Z,55.1
2018-04-24T06:55:55.541Z,56.6
2018-04-24T06:56:45.324Z,58.3
2018-04-24T06:57:35.179Z,56.3
2018-04-24T06:58:26.034Z,53.4
2018-04-24T06:59:16.076Z,51.4
2018-04-24T07:00:06.137Z,50.1
2018-04-24T07:00:56.257Z,49.4
2018-04-24T07:01:46.257Z,49.1
2018-04-24T07:02:36.334Z,49.1
2018-04-24T07:03:26.476Z,49.7
2018-04-24T07:04:16.476Z,50.4
2018-04-24T07:05:06.519Z,51.4
2018-04-24T07:05:56.592Z,52.5
2018-04-24T07:06:46.396Z,53.7
2018-04-24T07:07:36.483Z,54.8
2018-04-24T07:08:26.783Z,56.6
2018-04-24T07:09:16.851Z,58.8
2018-04-24T07:10:06.916Z,57.6
2018-04-24T07:10:56.488Z,55.9
2018-04-24T07:11:46.757Z,54.9
2018-04-24T07:12:37.125Z,53.4
2018-04-24T07:13:27.185Z,51.9
2018-04-24T07:14:17.235Z,50.9
2018-04-24T07:15:07.298Z,50.6
2018-04-24T07:15:57.073Z,50.8
2018-04-24T07:16:46.746Z,51.6
2018-04-24T07:17:37.229Z,52.6
2018-04-24T07:18:27.598Z,53.9
2018-04-24T07:19:17.050Z,55.3
2018-04-24T07:20:07.703Z,57.9
2018-04-24T07:20:57.776Z,59.4
2018-04-24T07:21:47.543Z,58.8
2018-04-24T07:22:37.892Z,58.8
2018-04-24T07:23:27.695Z,58.3
2018-04-24T07:24:17.725Z,56.9
2018-04-24T07:25:07.798Z,55.4
2018-04-24T07:25:58.150Z,54.4
2018-04-24T07:26:47.924Z,54
2018-04-24T07:27:37.717Z,54.4
2018-04-24T07:28:28.075Z,55.1
2018-04-24T07:29:18.122Z,55.9
2018-04-24T07:30:08.464Z,56.6
2018-04-24T07:30:58.549Z,57
2018-04-24T07:31:48.662Z,57
2018-04-24T07:32:38.388Z,57
2018-04-24T07:33:27.875Z,56.8
2018-04-24T07:34:18.798Z,56.6
2018-04-24T07:35:08.306Z,56.6
2018-04-24T07:35:58.633Z,56.7
2018-04-24T07:36:48.715Z,56.8
2018-04-24T07:37:39.124Z,57.1
2018-04-24T07:38:29.254Z,57.5
2018-04-24T07:39:19.224Z,57.7
2018-04-24T07:40:08.954Z,57.9
2018-04-24T07:40:59.157Z,58.1
2018-04-24T07:41:49.114Z,58.1
2018-04-24T07:42:39.452Z,58.2
2018-04-24T07:43:29.499Z,58.3
2018-04-24T07:44:19.593Z,58.4
2018-04-24T07:45:09.621Z,58.7
2018-04-24T07:45:59.714Z,58.9
2018-04-24T07:46:50.035Z,59
2018-04-24T07:47:39.565Z,59.3
2018-04-24T07:48:29.629Z,59.4
2018-04-24T07:49:19.947Z,59.6
2018-04-24T07:50:09.755Z,59.8
2018-04-24T07:51:00.111Z,59.9
2018-04-24T07:51:50.148Z,60.1
2018-04-24T07:52:40.222Z,60.2
2018-04-24T07:53:30.288Z,60.3
2018-04-24T07:54:19.792Z,60.5
2018-04-24T07:55:10.153Z,60.7
2018-04-24T07:55:59.995Z,60.9
2018-04-24T07:56:50.565Z,60.9
2018-04-24T07:57:40.632Z,61.1
2018-04-24T07:58:30.733Z,61.2
2018-04-24T07:59:20.926Z,61.3
2018-04-24T08:00:10.823Z,61.4
2018-04-24T08:01:00.895Z,61.5
2018-04-24T08:01:50.970Z,61.7
2018-04-24T08:02:40.555Z,61.8
2018-04-24T08:03:30.623Z,61.9
2018-04-24T08:04:20.873Z,62
2018-04-24T08:05:11.202Z,62.2
2018-04-24T08:06:01.300Z,62.4
2018-04-24T08:06:51.331Z,62.6
2018-04-24T08:07:41.405Z,62.7
2018-04-24T08:08:31.190Z,62.8
2018-04-24T08:09:21.531Z,62.9
2018-04-24T08:10:11.592Z,63
2018-04-24T08:11:01.400Z,63.1
2018-04-24T08:11:50.883Z,63.3
2018-04-24T08:12:41.787Z,63.4
2018-04-24T08:13:31.588Z,63.5
2018-04-24T08:14:21.917Z,63.5
2018-04-24T08:15:11.701Z,63.6
2018-04-24T08:16:01.767Z,63.6
2018-04-24T08:16:52.112Z,63.7
2018-04-24T08:17:42.190Z,63.8
2018-04-24T08:18:32.234Z,63.9
2018-04-24T08:19:22.307Z,64.2
2018-04-24T08:20:12.355Z,64.3
2018-04-24T08:21:02.435Z,64.3
2018-04-24T08:21:52.239Z,64.3
2018-04-24T08:22:42.579Z,64.4
2018-04-24T08:23:32.621Z,64.6
2018-04-24T08:24:22.417Z,64.7
2018-04-24T08:25:12.499Z,64.8
2018-04-24T08:26:02.844Z,64.9
2018-04-24T08:26:52.915Z,64.9
2018-04-24T08:27:43.021Z,65.1
2018-04-24T08:28:32.562Z,65.4
2018-04-24T08:29:22.809Z,65.6
2018-04-24T08:30:13.175Z,65.6
2018-04-24T08:31:03.285Z,65.6
2018-04-24T08:31:53.294Z,65.8
2018-04-24T08:32:43.353Z,65.9
2018-04-24T08:33:33.144Z,66.1
2018-04-24T08:34:23.492Z,66.3
2018-04-24T08:35:13.552Z,66.3
2018-04-24T08:36:03.612Z,66.4
2018-04-24T08:36:53.677Z,66.6
2018-04-24T08:37:43.774Z,66.6
2018-04-24T08:38:33.544Z,66.6
2018-04-24T08:39:23.876Z,66.8
2018-04-24T08:40:13.660Z,66.8
2018-04-24T08:41:04.014Z,66.8
2018-04-24T08:41:54.293Z,66.9
2018-04-24T08:42:44.158Z,66.9
2018-04-24T08:43:34.286Z,67
2018-04-24T08:44:24.344Z,67.1
2018-04-24T08:45:14.349Z,67.4
2018-04-24T08:46:04.427Z,67.5
2018-04-24T08:46:54.460Z,67.6
2018-04-24T08:47:44.518Z,67.6
2018-04-24T08:48:34.608Z,67.6
2018-04-24T08:49:24.687Z,67.8
2018-04-24T08:50:14.730Z,67.9
2018-04-24T08:51:04.798Z,68.1
2018-04-24T08:51:54.572Z,68.3
2018-04-24T08:52:44.923Z,68.6
2018-04-24T08:53:34.988Z,68.6
2018-04-24T08:54:25.083Z,68.8
2018-04-24T08:55:15.208Z,68.9
2018-04-24T08:56:04.923Z,69
2018-04-24T08:56:55.248Z,69
2018-04-24T08:57:45.043Z,69.1
2018-04-24T08:58:35.374Z,69.1
2018-04-24T08:59:25.455Z,68.9
2018-04-24T09:00:15.515Z,68.6
2018-04-24T09:01:05.299Z,68.4
2018-04-24T09:01:55.513Z,68.4
2018-04-24T09:02:45.724Z,68.5
2018-04-24T09:03:35.513Z,68.6
2018-04-24T09:04:25.850Z,68.8
2018-04-24T09:05:15.621Z,68.9
2018-04-24T09:06:06.071Z,69.1
2018-04-24T09:06:56.034Z,69.2
2018-04-24T09:07:45.819Z,69.3
2018-04-24T09:08:36.342Z,69.4
2018-04-24T09:09:26.238Z,69.4
2018-04-24T09:10:16.310Z,69.5
2018-04-24T09:11:06.376Z,69.7
2018-04-24T09:11:56.433Z,69.9
2018-04-24T09:12:46.514Z,69.9
2018-04-24T09:13:36.590Z,69.9
2018-04-24T09:14:26.365Z,70.1
2018-04-24T09:15:16.691Z,70.2
2018-04-24T09:16:06.487Z,70.4
2018-04-24T09:16:56.821Z,70.6
2018-04-24T09:17:46.900Z,70.5
2018-04-24T09:18:36.685Z,70.4
2018-04-24T09:19:27.096Z,70.4
2018-04-24T09:20:16.803Z,70.5
2018-04-24T09:21:07.160Z,70.6
2018-04-24T09:21:56.958Z,70.7
2018-04-24T09:22:47.023Z,70.8
2018-04-24T09:23:37.067Z,70.8
2018-04-24T09:24:27.126Z,71
2018-04-24T09:25:17.501Z,70.9
2018-04-24T09:26:07.551Z,70.8
2018-04-24T09:26:57.952Z,70.8
2018-04-24T09:27:47.684Z,71
2018-04-24T09:28:37.754Z,71.3
2018-04-24T09:29:27.826Z,71.3
2018-04-24T09:30:17.608Z,71.2
2018-04-24T09:31:07.673Z,71.3
2018-04-24T09:31:58.018Z,71.3
2018-04-24T09:32:48.068Z,71.1
2018-04-24T09:33:38.798Z,71.3
2018-04-24T09:34:28.207Z,71.6
2018-04-24T09:35:18.267Z,71.8
2018-04-24T09:36:08.359Z,71.9
2018-04-24T09:36:58.403Z,72.1
2018-04-24T09:37:48.468Z,72.3
2018-04-24T09:38:38.264Z,72.4
2018-04-24T09:39:28.617Z,72.5
2018-04-24T09:40:18.369Z,72.6
2018-04-24T09:41:08.724Z,72.6
2018-04-24T09:41:58.812Z,72.6
2018-04-24T09:42:48.949Z,72.6
2018-04-24T09:43:38.932Z,72.4
2018-04-24T09:44:28.743Z,72.4
2018-04-24T09:45:19.064Z,72.6
2018-04-24T09:46:09.128Z,72.6
2018-04-24T09:46:59.181Z,72.8
2018-04-24T09:47:49.278Z,72.9
2018-04-24T09:48:39.322Z,73.1
2018-04-24T09:49:29.410Z,73.1
2018-04-24T09:50:19.464Z,73.1
2018-04-24T09:51:09.244Z,73
2018-04-24T09:51:59.585Z,73
2018-04-24T09:52:49.658Z,72.9
2018-04-24T09:53:39.149Z,72.8
2018-04-24T09:54:29.224Z,72.6
2018-04-24T09:55:19.876Z,72.6
2018-04-24T09:56:09.630Z,72.8
2018-04-24T09:56:59.978Z,72.9
2018-04-24T09:57:50.056Z,73
2018-04-24T09:58:54.490Z,73
2018-04-24T09:59:29.960Z,73.1
2018-04-24T10:00:20.273Z,73.1
2018-04-24T10:01:10.315Z,73.2
2018-04-24T10:02:00.372Z,73.3
2018-04-24T10:02:50.431Z,73.4
2018-04-24T10:03:40.491Z,73.4
2018-04-24T10:04:30.566Z,73.5
2018-04-24T10:05:20.370Z,73.6
2018-04-24T10:06:10.428Z,73.7
2018-04-24T10:07:00.478Z,73.8
2018-04-24T10:07:51.195Z,74
2018-04-24T10:08:40.328Z,74.2
2018-04-24T10:09:30.693Z,74.3
2018-04-24T10:10:21.020Z,74.4
2018-04-24T10:11:10.543Z,74.3
2018-04-24T10:12:00.887Z,74.2
2018-04-24T10:12:50.971Z,74.3
2018-04-24T10:13:41.778Z,74.3
2018-04-24T10:14:31.375Z,74.2
2018-04-24T10:15:21.423Z,74.3
2018-04-24T10:16:11.487Z,74.4
2018-04-24T10:17:01.570Z,74.6
2018-04-24T10:17:51.075Z,74.6
2018-04-24T10:18:41.674Z,74.6
2018-04-24T10:19:31.515Z,74.6
2018-04-24T10:20:21.821Z,74.7
2018-04-24T10:21:11.892Z,74.6
2018-04-24T10:22:01.961Z,74.7
2018-04-24T10:22:51.737Z,74.9
2018-04-24T10:23:42.080Z,74.9
2018-04-24T10:24:32.137Z,74.6
2018-04-24T10:25:21.927Z,74.6
2018-04-24T10:26:12.279Z,74.6
2018-04-24T10:27:02.069Z,74.7
2018-04-24T10:27:52.144Z,74.6
2018-04-24T10:28:42.212Z,74.6
2018-04-24T10:29:32.001Z,74.8
2018-04-24T10:30:22.340Z,75
2018-04-24T10:31:12.674Z,75.1
2018-04-24T10:32:02.769Z,75.2
2018-04-24T10:32:52.799Z,75.2
2018-04-24T10:33:42.894Z,75.3
2018-04-24T10:34:32.677Z,75.2
2018-04-24T10:35:23.009Z,75.1
2018-04-24T10:36:12.578Z,74.9
2018-04-24T10:37:03.140Z,74.8
2018-04-24T10:37:53.212Z,74.7
2018-04-24T10:38:42.987Z,74.4
2018-04-24T10:39:33.065Z,74.5
2018-04-24T10:40:22.552Z,74.7
2018-04-24T10:41:13.464Z,74.8
2018-04-24T10:42:03.634Z,74.8
2018-04-24T10:42:53.050Z,74.9
2018-04-24T10:43:43.774Z,74.9
2018-04-24T10:44:33.738Z,74.9
2018-04-24T10:45:23.792Z,75.1
2018-04-24T10:46:13.883Z,75.1
2018-04-24T10:47:03.672Z,75.3
2018-04-24T10:47:53.741Z,75.3
2018-04-24T10:48:44.076Z,75.3
2018-04-24T10:49:33.868Z,75.2
2018-04-24T10:50:23.751Z,75.3
2018-04-24T10:51:13.994Z,75.3
2018-04-24T10:52:04.329Z,75.1
2018-04-24T10:52:54.401Z,75
2018-04-24T10:53:44.172Z,75
2018-04-24T10:54:34.254Z,74.9
2018-04-24T10:55:24.611Z,74.8
2018-04-24T10:56:14.659Z,74.8
2018-04-24T10:57:04.438Z,74.6
2018-04-24T10:57:54.821Z,74.6
2018-04-24T10:58:44.916Z,74.6
2018-04-24T10:59:34.918Z,74.6
2018-04-24T11:00:24.704Z,74.9
2018-04-24T11:01:15.051Z,74.8
2018-04-24T11:02:05.126Z,74.8
2018-04-24T11:02:55.173Z,74.9
2018-04-24T11:03:45.252Z,75.1
2018-04-24T11:04:35.029Z,75.3
2018-04-24T11:05:25.376Z,75.4
2018-04-24T11:06:15.458Z,75.4
2018-04-24T11:07:05.526Z,75.3
2018-04-24T11:07:55.580Z,75.4
2018-04-24T11:08:45.388Z,75.6
2018-04-24T11:09:35.741Z,75.6
2018-04-24T11:10:25.223Z,75.4
2018-04-24T11:11:15.860Z,75.3
2018-04-24T11:12:05.928Z,75.4
2018-04-24T11:12:55.718Z,75.4
2018-04-24T11:13:46.032Z,75.4
2018-04-24T11:14:36.134Z,75.4
2018-04-24T11:15:26.181Z,75.4
2018-04-24T11:16:16.241Z,75.3
2018-04-24T11:17:06.532Z,75.2
2018-04-24T11:17:56.383Z,75.3
2018-04-24T11:18:46.427Z,75.5
2018-04-24T11:19:36.508Z,75.8
2018-04-24T11:20:26.568Z,75.8
2018-04-24T11:21:16.392Z,75.7
2018-04-24T11:22:06.713Z,75.8
2018-04-24T11:22:56.762Z,75.9
2018-04-24T11:23:46.836Z,75.9
2018-04-24T11:24:36.639Z,76
2018-04-24T11:25:26.964Z,75.9
2018-04-24T11:26:16.743Z,75.9
2018-04-24T11:27:06.903Z,76.1
2018-04-24T11:27:57.185Z,76.1
2018-04-24T11:28:46.949Z,75.8
2018-04-24T11:29:37.322Z,75.5
2018-04-24T11:30:27.192Z,75.4
2018-04-24T11:31:17.149Z,75.4
2018-04-24T11:32:07.514Z,75.3
2018-04-24T11:32:57.575Z,75
2018-04-24T11:33:47.635Z,74.8
2018-04-24T11:34:37.710Z,74.7
2018-04-24T11:35:27.212Z,74.6
2018-04-24T11:36:17.560Z,74.6
2018-04-24T11:37:07.894Z,74.5
2018-04-24T11:37:57.963Z,74.5
2018-04-24T11:38:47.752Z,74.6
2018-04-24T11:39:38.113Z,74.6
2018-04-24T11:40:28.174Z,74.8
2018-04-24T11:41:18.391Z,74.8
2018-04-24T11:42:08.309Z,74.8
2018-04-24T11:42:58.374Z,74.8
2018-04-24T11:43:48.413Z,74.9
2018-04-24T11:44:38.495Z,74.9
2018-04-24T11:45:28.626Z,74.8
2018-04-24T11:46:18.085Z,74.5
2018-04-24T11:47:08.685Z,74.3
2018-04-24T11:47:58.289Z,74
2018-04-24T11:48:48.818Z,73.9
2018-04-24T11:49:39.079Z,73.8
2018-04-24T11:50:28.691Z,73.8
2018-04-24T11:51:19.048Z,73.9
2018-04-24T11:52:09.171Z,73.9
2018-04-24T11:52:59.177Z,74
2018-04-24T11:53:49.211Z,74.1
2018-04-24T11:54:39.290Z,74.3
2018-04-24T11:55:29.361Z,74.4
2018-04-24T11:56:19.438Z,74.4
2018-04-24T11:57:09.927Z,74.5
2018-04-24T11:57:59.557Z,74.4
2018-04-24T11:58:49.622Z,74.3
2018-04-24T11:59:39.677Z,74.2
2018-04-24T12:00:29.755Z,74.3
2018-04-24T12:01:19.817Z,74.3
2018-04-24T12:02:09.882Z,74.1
2018-04-24T12:02:59.395Z,73.9
2018-04-24T12:03:50.013Z,73.8
2018-04-24T12:04:40.077Z,73.6
2018-04-24T12:05:30.159Z,73.5
2018-04-24T12:06:20.306Z,73.4
2018-04-24T12:07:10.387Z,73.3
2018-04-24T12:08:00.344Z,73.3
2018-04-24T12:08:50.405Z,73.1
2018-04-24T12:09:40.207Z,73.1
2018-04-24T12:10:30.281Z,73.2
2018-04-24T12:11:20.623Z,73.2
2018-04-24T12:12:10.675Z,73.1
2018-04-24T12:13:00.762Z,73.1
2018-04-24T12:13:50.811Z,73.1
2018-04-24T12:14:40.889Z,73.1
2018-04-24T12:15:30.948Z,73.2
2018-04-24T12:16:20.442Z,73.3
2018-04-24T12:17:11.108Z,73.3
2018-04-24T12:18:00.596Z,73.3
2018-04-24T12:18:51.203Z,73.4
2018-04-24T12:19:41.367Z,73.5
2018-04-24T12:20:31.375Z,73.4
2018-04-24T12:21:21.136Z,73.3
2018-04-24T12:22:11.495Z,73.1
2018-04-24T12:23:01.342Z,73.1
2018-04-24T12:23:51.603Z,73.3
2018-04-24T12:24:41.430Z,73.3
2018-04-24T12:25:31.466Z,73.1
2018-04-24T12:26:21.803Z,73.2
2018-04-24T12:27:11.871Z,73.2
2018-04-24T12:28:01.681Z,73.1
2018-04-24T12:28:52.027Z,72.9
2018-04-24T12:29:41.601Z,72.8
2018-04-24T12:30:32.175Z,72.6
2018-04-24T12:31:22.198Z,72.4
2018-04-24T12:32:12.282Z,72.3
2018-04-24T12:33:01.793Z,72.2
2018-04-24T12:33:52.416Z,72.1
2018-04-24T12:34:42.469Z,72
2018-04-24T12:35:31.983Z,72.1
2018-04-24T12:36:22.102Z,72.2
2018-04-24T12:37:12.656Z,72.3
2018-04-24T12:38:02.537Z,72.4
2018-04-24T12:38:53.091Z,72.4
2018-04-24T12:39:42.881Z,72.6
2018-04-24T12:40:32.654Z,72.5
2018-04-24T12:41:22.997Z,72.6
2018-04-24T12:42:13.057Z,72.6
2018-04-24T12:43:03.129Z,72.4
2018-04-24T12:43:52.924Z,72.5
2018-04-24T12:44:42.686Z,72.6
2018-04-24T12:45:33.325Z,72.4
2018-04-24T12:46:23.380Z,72.3
2018-04-24T12:47:13.443Z,71.9
2018-04-24T12:48:03.525Z,71.6
2018-04-24T12:48:53.034Z,71.4
2018-04-24T12:49:43.176Z,71.4
2018-04-24T12:50:33.742Z,71.5
2018-04-24T12:51:23.872Z,71.6
2018-04-24T12:52:13.847Z,71.4
2018-04-24T12:53:03.919Z,71.1
2018-04-24T12:53:53.709Z,70.9
2018-04-24T12:54:44.056Z,70.9
2018-04-24T12:55:34.124Z,70.9
2018-04-24T12:56:23.907Z,70.8
2018-04-24T12:57:14.250Z,70.8
2018-04-24T12:58:04.301Z,70.8
2018-04-24T12:58:54.401Z,70.6
2018-04-24T12:59:44.167Z,70.3
2018-04-24T13:00:33.946Z,70.1
2018-04-24T13:01:24.574Z,69.8
2018-04-24T13:02:14.381Z,69.7
2018-04-24T13:03:04.038Z,69.8
2018-04-24T13:03:54.735Z,69.8
2018-04-24T13:04:44.659Z,69.8
2018-04-24T13:05:34.933Z,69.9
2018-04-24T13:06:24.685Z,69.9
2018-04-24T13:07:15.069Z,69.9
2018-04-24T13:08:04.577Z,69.9
2018-04-24T13:08:54.904Z,70
2018-04-24T13:09:45.613Z,70.1
2018-04-24T13:10:35.289Z,70
2018-04-24T13:11:25.107Z,70
2018-04-24T13:12:15.432Z,69.9
2018-04-24T13:13:05.503Z,69.8
2018-04-24T13:13:55.291Z,69.7
2018-04-24T13:14:45.164Z,69.6
2018-04-24T13:15:35.719Z,69.6
2018-04-24T13:16:25.299Z,69.6
2018-04-24T13:17:15.070Z,69.5
2018-04-24T13:18:05.643Z,69.3
2018-04-24T13:18:55.963Z,69.1
2018-04-24T13:19:45.758Z,68.9
2018-04-24T13:20:35.825Z,68.9
2018-04-24T13:21:26.187Z,69
2018-04-24T13:22:15.960Z,68.6
2018-04-24T13:23:05.752Z,67.4
2018-04-24T13:23:56.087Z,66.3
2018-04-24T13:24:46.150Z,66.1
2018-04-24T13:25:36.040Z,66.5
2018-04-24T13:26:26.582Z,66.9
2018-04-24T13:27:16.346Z,67.3
2018-04-24T13:28:06.694Z,67.4
2018-04-24T13:28:56.281Z,67.6
2018-04-24T13:29:46.547Z,67.4
2018-04-24T13:30:36.611Z,67.3
2018-04-24T13:31:26.951Z,67.1
2018-04-24T13:32:17.007Z,66.9
2018-04-24T13:33:06.814Z,66.6
2018-04-24T13:33:57.135Z,66.4
2018-04-24T13:34:46.936Z,66.4
2018-04-24T13:35:37.304Z,66.3
2018-04-24T13:36:27.060Z,66.2
2018-04-24T13:37:17.771Z,66
2018-04-24T13:38:07.199Z,65.7
2018-04-24T13:38:57.281Z,65.5
2018-04-24T13:39:47.056Z,65.6
2018-04-24T13:40:37.396Z,65.5
2018-04-24T13:41:27.741Z,65.4
2018-04-24T13:42:17.806Z,65.3
2018-04-24T13:43:07.756Z,65.1
2018-04-24T13:43:57.088Z,64.9
2018-04-24T13:44:47.738Z,64.7
2018-04-24T13:45:38.183Z,64.5
2018-04-24T13:46:27.857Z,64.3
2018-04-24T13:47:18.214Z,64.2
2018-04-24T13:48:08.254Z,63.9
2018-04-24T13:48:58.260Z,63.4
2018-04-24T13:49:48.393Z,62.7
2018-04-24T13:50:38.471Z,62.2
2018-04-24T13:51:28.543Z,61.8
2018-04-24T13:52:18.588Z,61.5
2018-04-24T13:53:08.387Z,61.2
2018-04-24T13:53:58.738Z,60.8
2018-04-24T13:54:48.803Z,60.3
2018-04-24T13:55:38.846Z,59.9
2018-04-24T13:56:28.915Z,59.8
2018-04-24T13:57:18.979Z,60
2018-04-24T13:58:08.792Z,60.4
2018-04-24T13:58:59.144Z,60.8
2018-04-24T13:59:49.166Z,61.2
2018-04-24T14:00:39.241Z,61.4
2018-04-24T14:01:29.332Z,61.4
2018-04-24T14:02:19.377Z,61.6
2018-04-24T14:03:09.445Z,61.8
2018-04-24T14:03:59.502Z,61.8
2018-04-24T14:04:49.564Z,62
2018-04-24T14:05:39.377Z,62.3
2018-04-24T14:06:29.992Z,62.6
2018-04-24T14:07:19.205Z,62.6
2018-04-24T14:08:09.580Z,62.6
2018-04-24T14:08:59.937Z,62.6
2018-04-24T14:09:49.423Z,62.7
2018-04-24T14:10:40.049Z,62.8
2018-04-24T14:11:30.107Z,62.9
2018-04-24T14:12:19.954Z,62.8
2018-04-24T14:13:10.220Z,62.8
2018-04-24T14:14:00.318Z,62.9
2018-04-24T14:14:50.091Z,63
2018-04-24T14:15:39.949Z,62.9
2018-04-24T14:16:30.578Z,62.6
2018-04-24T14:17:20.564Z,62.4
2018-04-24T14:18:10.345Z,62.2
2018-04-24T14:19:00.503Z,62
2018-04-24T14:19:50.755Z,61.8
2018-04-24T14:20:40.832Z,61.3
2018-04-24T14:21:31.067Z,61
2018-04-24T14:22:20.950Z,60.8
2018-04-24T14:23:10.745Z,60.5
2018-04-24T14:24:01.088Z,60.2
2018-04-24T14:24:51.145Z,59.8
2018-04-24T14:25:41.202Z,59.4
2018-04-24T14:26:30.796Z,59.1
2018-04-24T14:27:21.349Z,58.7
2018-04-24T14:28:11.417Z,58.1
2018-04-24T14:29:01.484Z,57.6
2018-04-24T14:29:51.249Z,57.1
2018-04-24T14:30:41.601Z,56.6
2018-04-24T14:31:31.682Z,56.1
2018-04-24T14:32:21.733Z,55.6
2018-04-24T14:33:11.801Z,55.1
2018-04-24T14:34:01.598Z,54.6
2018-04-24T14:34:51.930Z,54.1
2018-04-24T14:35:42.011Z,53.9
2018-04-24T14:36:32.070Z,53.7
2018-04-24T14:37:21.864Z,53.6
2018-04-24T14:38:12.203Z,53.5
2018-04-24T14:39:02.280Z,53.4
2018-04-24T14:39:52.043Z,53.3
2018-04-24T14:40:42.381Z,53.3
2018-04-24T14:41:32.452Z,53.2
2018-04-24T14:42:22.521Z,53
2018-04-24T14:43:12.309Z,52.8
2018-04-24T14:44:02.659Z,52.5
2018-04-24T14:44:52.438Z,52.3
2018-04-24T14:45:42.825Z,52.1
2018-04-24T14:46:32.835Z,51.9
2018-04-24T14:47:22.974Z,51.7
2018-04-24T14:48:12.709Z,51.5
2018-04-24T14:49:03.118Z,51.3
2018-04-24T14:49:52.632Z,50.9
2018-04-24T14:50:43.214Z,50.6
2018-04-24T14:51:33.321Z,50.4
2018-04-24T14:52:23.292Z,50.2
2018-04-24T14:53:13.387Z,50
2018-04-24T14:54:03.435Z,49.8
2018-04-24T14:54:53.519Z,49.6
2018-04-24T14:55:43.555Z,49.3
2018-04-24T14:56:33.644Z,49
2018-04-24T14:57:23.426Z,48.9
2018-04-24T14:58:13.946Z,48.6
2018-04-24T14:59:03.260Z,48.4
2018-04-24T14:59:53.896Z,48.2
2018-04-24T15:00:43.401Z,48.2
2018-04-24T15:01:33.736Z,48.1
2018-04-24T15:02:23.809Z,48
2018-04-24T15:03:14.143Z,47.8
2018-04-24T15:04:04.216Z,47.6
2018-04-24T15:04:54.281Z,47.4
2018-04-24T15:05:44.060Z,47.3
2018-04-24T15:06:34.114Z,47.1
2018-04-24T15:07:23.917Z,46.9
2018-04-24T15:08:13.974Z,46.8
2018-04-24T15:09:04.030Z,46.5
2018-04-24T15:09:54.669Z,46.3
2018-04-24T15:10:44.477Z,45.9
2018-04-24T15:11:34.510Z,45.7
2018-04-24T15:12:24.854Z,45.4
2018-04-24T15:13:14.932Z,45.3
2018-04-24T15:14:05.058Z,45.1
2018-04-24T15:14:55.053Z,44.9
2018-04-24T15:15:45.124Z,44.7
2018-04-24T15:16:35.183Z,44.4
2018-04-24T15:17:25.257Z,44.1
2018-04-24T15:18:15.312Z,85
2018-04-24T15:19:05.178Z,43.7
2018-04-24T15:19:54.867Z,43.4
2018-04-24T15:20:45.232Z,43.2
2018-04-24T15:21:35.572Z,42.9
2018-04-24T15:22:25.367Z,42.6
2018-04-24T15:23:15.453Z,42.4
2018-04-24T15:24:05.832Z,42.4
2018-04-24T15:24:55.545Z,42.2
2018-04-24T15:25:45.889Z,42
2018-04-24T15:26:35.783Z,41.9
2018-04-24T15:27:25.754Z,41.8
2018-04-24T15:28:16.593Z,41.6
2018-04-24T15:29:06.157Z,41.3
2018-04-24T15:29:56.219Z,41.2
2018-04-24T15:30:46.010Z,41.1
2018-04-24T15:31:36.340Z,40.9
2018-04-24T15:32:26.399Z,40.8
2018-04-24T15:33:16.477Z,40.8
2018-04-24T15:34:06.297Z,40.6
2018-04-24T15:34:56.661Z,40.4
2018-04-24T15:35:46.395Z,40.1
2018-04-24T15:36:36.725Z,39.9
2018-04-24T15:37:26.807Z,39.9
2018-04-24T15:38:16.859Z,39.7
2018-04-24T15:39:06.945Z,39.5
2018-04-24T15:39:56.716Z,39.4
2018-04-24T15:40:47.075Z,39.2
2018-04-24T15:41:37.135Z,39
2018-04-24T15:42:26.924Z,38.8
2018-04-24T15:43:17.247Z,38.7
2018-04-24T15:44:07.308Z,38.6
2018-04-24T15:44:57.383Z,38.4
2018-04-24T15:45:47.448Z,38.3
2018-04-24T15:46:37.513Z,38.2
2018-04-24T15:47:27.289Z,38.1
2018-04-24T15:48:17.635Z,38.1
2018-04-24T15:49:07.715Z,37.9
2018-04-24T15:49:57.772Z,37.8
2018-04-24T15:50:47.828Z,37.6
2018-04-24T15:51:37.623Z,37.4
2018-04-24T15:52:27.416Z,37.3
2018-04-24T15:53:18.049Z,37.1
2018-04-24T15:54:08.096Z,36.9
2018-04-24T15:54:58.103Z,36.7
2018-04-24T15:55:48.240Z,36.6
2018-04-24T15:56:38.015Z,36.5
2018-04-24T15:57:27.806Z,36.4
2018-04-24T15:58:18.417Z,36.3
2018-04-24T15:59:08.474Z,36.2
2018-04-24T15:59:58.574Z,36.1
2018-04-24T16:00:48.616Z,36.1
2018-04-24T16:01:38.460Z,35.9
2018-04-24T16:02:28.467Z,35.9
2018-04-24T16:03:18.262Z,35.8
2018-04-24T16:04:08.595Z,35.6
2018-04-24T16:04:58.964Z,35.6
2018-04-24T16:05:49.008Z,35.4
2018-04-24T16:06:39.143Z,35.3
2018-04-24T16:07:29.123Z,35.2
2018-04-24T16:08:19.177Z,35.1
2018-04-24T16:09:09.017Z,34.9
2018-04-24T16:09:59.321Z,34.8
2018-04-24T16:10:49.100Z,34.6
2018-04-24T16:11:39.461Z,34.5
2018-04-24T16:12:29.512Z,34.4
2018-04-24T16:13:19.313Z,34.3
2018-04-24T16:14:09.657Z,34.1
2018-04-24T16:14:59.721Z,34
2018-04-24T16:15:49.523Z,33.9
2018-04-24T16:16:39.860Z,33.8
2018-04-24T16:17:29.625Z,33.6
2018-04-24T16:18:19.961Z,33.4
2018-04-24T16:19:09.763Z,33.3
2018-04-24T16:20:00.101Z,33.2
2018-04-24T16:20:50.168Z,33
2018-04-24T16:21:39.952Z,32.9
2018-04-24T16:22:30.286Z,32.8
2018-04-24T16:23:20.113Z,32.6
2018-04-24T16:24:10.637Z,32.5
2018-04-24T16:25:00.189Z,32.3
2018-04-24T16:25:50.553Z,32.2
2018-04-24T16:26:40.619Z,32
2018-04-24T16:27:30.676Z,31.8
2018-04-24T16:28:20.751Z,31.7
2018-04-24T16:29:10.550Z,31.6
2018-04-24T16:30:01.228Z,31.4
2018-04-24T16:30:50.671Z,31.3
2018-04-24T16:31:40.721Z,31.1
2018-04-24T16:32:31.072Z,30.9
2018-04-24T16:33:20.871Z,30.7
2018-04-24T16:34:11.204Z,30.6
2018-04-24T16:35:00.990Z,30.4
2018-04-24T16:35:51.764Z,30.2
2018-04-24T16:36:41.111Z,29.9
2018-04-24T16:37:31.458Z,29.8
2018-04-24T16:38:21.257Z,29.6
2018-04-24T16:39:11.587Z,29.4
2018-04-24T16:40:01.646Z,29.2
2018-04-24T16:40:51.714Z,29
2018-04-24T16:41:41.779Z,28.9
2018-04-24T16:42:31.927Z,28.7
2018-04-24T16:43:21.052Z,28.6
2018-04-24T16:44:11.490Z,28.4
2018-04-24T16:45:02.070Z,28.3
2018-04-24T16:45:51.824Z,28.2
2018-04-24T16:46:42.167Z,28.1
2018-04-24T16:47:31.948Z,28
2018-04-24T16:48:22.307Z,27.9
2018-04-24T16:49:12.375Z,27.8
2018-04-24T16:50:02.467Z,27.6
2018-04-24T16:50:51.936Z,27.5
2018-04-24T16:51:42.563Z,27.4
2018-04-24T16:52:31.775Z,27.3
2018-04-24T16:53:22.400Z,27.2
2018-04-24T16:54:12.755Z,27.1
2018-04-24T16:55:02.527Z,26.9
2018-04-24T16:55:52.593Z,26.8
2018-04-24T16:56:42.953Z,26.7
2018-04-24T16:57:33.081Z,26.6
2018-04-24T16:58:23.060Z,26.4
2018-04-24T16:59:12.865Z,26.4
2018-04-24T17:00:03.197Z,26.3
2018-04-24T17:00:53.384Z,26.1
2018-04-24T17:01:43.045Z,26
2018-04-24T17:02:33.383Z,25.8
2018-04-24T17:03:23.458Z,25.4
2018-04-24T17:04:13.529Z,24.9
2018-04-24T17:05:03.576Z,24.6
2018-04-24T17:05:53.643Z,24.3
2018-04-24T17:06:43.727Z,24
2018-04-24T17:07:33.515Z,23.8
2018-04-24T17:08:23.862Z,23.6
2018-04-24T17:09:13.894Z,23.4
2018-04-24T17:10:04.067Z,23.2
2018-04-24T17:10:54.032Z,23
2018-04-24T17:11:43.532Z,22.8
2018-04-24T17:12:34.169Z,22.6
2018-04-24T17:13:24.227Z,22.3
2018-04-24T17:14:14.293Z,22.1
2018-04-24T17:15:04.342Z,21.9
2018-04-24T17:15:54.137Z,21.7
2018-04-24T17:16:44.484Z,21.4
2018-04-24T17:17:34.569Z,21.3
2018-04-24T17:18:24.599Z,21.1
2018-04-24T17:19:14.669Z,20.8
2018-04-24T17:20:04.270Z,20.6
2018-04-24T17:20:54.784Z,20.4
2018-04-24T17:21:44.865Z,20.3
2018-04-24T17:22:34.930Z,20.1
2018-04-24T17:23:24.987Z,19.9
2018-04-24T17:24:15.052Z,19.8
2018-04-24T17:25:05.129Z,19.7
2018-04-24T17:25:54.910Z,19.6
2018-04-24T17:26:45.250Z,19.4
2018-04-24T17:27:35.308Z,19.3
2018-04-24T17:28:25.395Z,19.2
2018-04-24T17:29:15.436Z,19.1
2018-04-24T17:30:05.236Z,19
2018-04-24T17:30:55.969Z,18.9
2018-04-24T17:31:45.627Z,18.9
2018-04-24T17:32:35.687Z,18.8
2018-04-24T17:33:25.475Z,18.8
2018-04-24T17:35:05.903Z,18.6
2018-04-24T17:35:55.669Z,18.6
2018-04-24T17:36:45.719Z,18.5
2018-04-24T17:37:35.808Z,18.4
2018-04-24T17:38:26.157Z,18.4
2018-04-24T17:39:16.201Z,18.3
2018-04-24T17:40:06.264Z,18.3
2018-04-24T17:40:56.600Z,18.2
2018-04-24T17:41:46.407Z,18.2
2018-04-24T17:42:36.456Z,18.1
2018-04-24T17:43:26.532Z,18.1
2018-04-24T17:44:16.299Z,18
2018-04-24T17:45:06.901Z,17.9
2018-04-24T17:45:56.709Z,17.9
2018-04-24T17:46:46.800Z,17.9
2018-04-24T17:47:35.821Z,17.9